sensor_id;sensor_type;location;lat;lon;timestamp;pressure;altitude;pressure_sealevel;temperature;humidity
60465;BME280;46314;52.392;9.758;2023-03-26T00:01:11;99679.75;;;9.61;77.98
60465;BME280;46314;52.392;9.758;2023-03-26T00:03:39;99685.44;;;9.56;77.53
60465;BME280;46314;52.392;9.758;2023-03-26T00:06:08;99686.66;;;9.41;79.29
60465;BME280;46314;52.392;9.758;2023-03-26T00:08:36;99694.09;;;9.32;79.53
60465;BME280;46314;52.392;9.758;2023-03-26T00:11:04;99696.28;;;9.43;79.39
60465;BME280;46314;52.392;9.758;2023-03-26T00:13:31;99692.88;;;9.15;79.98
60465;BME280;46314;52.392;9.758;2023-03-26T00:15:58;99695.56;;;9.29;79.24
60465;BME280;46314;52.392;9.758;2023-03-26T00:18:25;99698.28;;;9.20;79.85
60465;BME280;46314;52.392;9.758;2023-03-26T00:20:53;99702.63;;;9.75;77.09
60465;BME280;46314;52.392;9.758;2023-03-26T00:23:19;99703.44;;;9.44;78.20
60465;BME280;46314;52.392;9.758;2023-03-26T00:25:46;99709.63;;;9.41;78.42
60465;BME280;46314;52.392;9.758;2023-03-26T00:28:14;99707.63;;;9.33;78.22
60465;BME280;46314;52.392;9.758;2023-03-26T00:30:41;99711.78;;;9.84;76.49
60465;BME280;46314;52.392;9.758;2023-03-26T00:33:07;99720.63;;;9.55;77.11
60465;BME280;46314;52.392;9.758;2023-03-26T00:35:34;99729.16;;;9.68;76.47
60465;BME280;46314;52.392;9.758;2023-03-26T00:38:02;99716.88;;;9.60;76.75
60465;BME280;46314;52.392;9.758;2023-03-26T00:40:29;99726.06;;;9.38;77.37
60465;BME280;46314;52.392;9.758;2023-03-26T00:42:56;99717.84;;;9.55;77.03
60465;BME280;46314;52.392;9.758;2023-03-26T00:45:22;99724.84;;;9.30;77.84
60465;BME280;46314;52.392;9.758;2023-03-26T00:47:49;99724.00;;;9.52;77.32
60465;BME280;46314;52.392;9.758;2023-03-26T00:50:15;99726.28;;;9.50;76.94
60465;BME280;46314;52.392;9.758;2023-03-26T00:52:42;99723.38;;;9.55;76.45
60465;BME280;46314;52.392;9.758;2023-03-26T00:55:10;99730.81;;;9.46;76.34
60465;BME280;46314;52.392;9.758;2023-03-26T00:57:37;99725.16;;;9.28;76.33
60465;BME280;46314;52.392;9.758;2023-03-26T01:00:06;99717.81;;;9.24;76.21
60465;BME280;46314;52.392;9.758;2023-03-26T01:02:33;99734.66;;;9.36;75.55
60465;BME280;46314;52.392;9.758;2023-03-26T01:04:59;99736.22;;;9.51;75.27
60465;BME280;46314;52.392;9.758;2023-03-26T01:07:26;99744.66;;;9.46;76.19
60465;BME280;46314;52.392;9.758;2023-03-26T01:09:53;99742.16;;;9.36;75.96
60465;BME280;46314;52.392;9.758;2023-03-26T01:12:24;99746.66;;;9.54;75.32
60465;BME280;46314;52.392;9.758;2023-03-26T01:14:52;99740.78;;;9.24;77.60
60465;BME280;46314;52.392;9.758;2023-03-26T01:17:20;99739.53;;;9.31;76.95
60465;BME280;46314;52.392;9.758;2023-03-26T01:19:50;99740.22;;;9.36;76.79
60465;BME280;46314;52.392;9.758;2023-03-26T01:22:20;99742.19;;;9.44;76.44
60465;BME280;46314;52.392;9.758;2023-03-26T01:24:48;99737.00;;;9.43;75.96
60465;BME280;46314;52.392;9.758;2023-03-26T01:27:21;99741.69;;;9.42;75.95
60465;BME280;46314;52.392;9.758;2023-03-26T01:29:52;99743.78;;;9.37;75.96
60465;BME280;46314;52.392;9.758;2023-03-26T01:32:35;99745.63;;;9.19;75.61
60465;BME280;46314;52.392;9.758;2023-03-26T01:35:17;99746.53;;;8.91;77.64
60465;BME280;46314;52.392;9.758;2023-03-26T01:37:56;99743.28;;;9.35;75.08
60465;BME280;46314;52.392;9.758;2023-03-26T01:40:33;99748.81;;;9.35;74.93
60465;BME280;46314;52.392;9.758;2023-03-26T01:43:07;99735.97;;;9.39;74.53
60465;BME280;46314;52.392;9.758;2023-03-26T01:45:38;99743.97;;;9.72;73.41
60465;BME280;46314;52.392;9.758;2023-03-26T01:48:07;99740.03;;;9.64;73.21
60465;BME280;46314;52.392;9.758;2023-03-26T01:50:33;99737.13;;;9.15;75.04
60465;BME280;46314;52.392;9.758;2023-03-26T01:53:00;99743.72;;;9.51;74.08
60465;BME280;46314;52.392;9.758;2023-03-26T01:55:35;99736.22;;;9.51;73.22
60465;BME280;46314;52.392;9.758;2023-03-26T01:58:10;99740.50;;;9.57;72.62
60465;BME280;46314;52.392;9.758;2023-03-26T02:00:46;99735.34;;;9.42;73.02
60465;BME280;46314;52.392;9.758;2023-03-26T02:03:22;99746.47;;;9.51;72.32
60465;BME280;46314;52.392;9.758;2023-03-26T02:05:53;99739.75;;;9.43;71.90
60465;BME280;46314;52.392;9.758;2023-03-26T02:08:25;99731.03;;;9.27;71.74
60465;BME280;46314;52.392;9.758;2023-03-26T02:10:57;99739.66;;;9.25;72.03
60465;BME280;46314;52.392;9.758;2023-03-26T02:13:25;99737.69;;;9.03;72.95
60465;BME280;46314;52.392;9.758;2023-03-26T02:15:56;99736.44;;;8.87;72.87
60465;BME280;46314;52.392;9.758;2023-03-26T02:18:23;99736.69;;;8.99;72.73
60465;BME280;46314;52.392;9.758;2023-03-26T02:20:51;99739.28;;;8.96;72.82
60465;BME280;46314;52.392;9.758;2023-03-26T02:23:18;99735.22;;;8.79;73.48
60465;BME280;46314;52.392;9.758;2023-03-26T02:25:45;99732.03;;;8.86;73.28
60465;BME280;46314;52.392;9.758;2023-03-26T02:28:12;99735.44;;;8.46;74.13
60465;BME280;46314;52.392;9.758;2023-03-26T02:30:39;99737.38;;;8.82;73.79
60465;BME280;46314;52.392;9.758;2023-03-26T02:33:05;99733.41;;;8.75;73.95
60465;BME280;46314;52.392;9.758;2023-03-26T02:35:31;99729.38;;;8.81;74.08
60465;BME280;46314;52.392;9.758;2023-03-26T02:37:58;99735.72;;;9.04;73.08
60465;BME280;46314;52.392;9.758;2023-03-26T02:40:24;99737.31;;;8.96;73.06
60465;BME280;46314;52.392;9.758;2023-03-26T02:42:51;99738.09;;;8.74;73.77
60465;BME280;46314;52.392;9.758;2023-03-26T02:45:19;99736.56;;;8.82;73.54
60465;BME280;46314;52.392;9.758;2023-03-26T02:47:45;99739.19;;;8.87;73.84
60465;BME280;46314;52.392;9.758;2023-03-26T02:50:12;99743.09;;;9.31;71.83
60465;BME280;46314;52.392;9.758;2023-03-26T02:52:38;99737.44;;;9.14;72.09
60465;BME280;46314;52.392;9.758;2023-03-26T02:55:05;99737.81;;;9.21;72.51
60465;BME280;46314;52.392;9.758;2023-03-26T02:57:31;99736.75;;;9.08;73.47
60465;BME280;46314;52.392;9.758;2023-03-26T02:59:57;99740.22;;;9.36;72.62
60465;BME280;46314;52.392;9.758;2023-03-26T03:02:25;99732.28;;;9.21;72.73
60465;BME280;46314;52.392;9.758;2023-03-26T03:04:52;99732.22;;;9.66;71.52
60465;BME280;46314;52.392;9.758;2023-03-26T03:07:18;99727.78;;;9.56;70.85
60465;BME280;46314;52.392;9.758;2023-03-26T03:09:44;99731.41;;;9.34;72.42
60465;BME280;46314;52.392;9.758;2023-03-26T03:12:11;99722.00;;;9.44;71.98
60465;BME280;46314;52.392;9.758;2023-03-26T03:14:37;99723.44;;;9.64;71.20
60465;BME280;46314;52.392;9.758;2023-03-26T03:17:03;99715.66;;;9.43;71.97
60465;BME280;46314;52.392;9.758;2023-03-26T03:19:31;99708.31;;;9.16;73.11
60465;BME280;46314;52.392;9.758;2023-03-26T03:21:58;99699.72;;;9.18;73.15
60465;BME280;46314;52.392;9.758;2023-03-26T03:24:24;99701.91;;;9.07;73.87
60465;BME280;46314;52.392;9.758;2023-03-26T03:26:50;99705.56;;;9.16;73.35
60465;BME280;46314;52.392;9.758;2023-03-26T03:29:17;99705.06;;;8.91;73.11
60465;BME280;46314;52.392;9.758;2023-03-26T03:31:43;99707.25;;;8.81;73.20
60465;BME280;46314;52.392;9.758;2023-03-26T03:34:09;99702.41;;;8.64;72.95
60465;BME280;46314;52.392;9.758;2023-03-26T03:36:37;99692.75;;;8.75;71.50
60465;BME280;46314;52.392;9.758;2023-03-26T03:39:04;99701.78;;;8.67;71.32
60465;BME280;46314;52.392;9.758;2023-03-26T03:41:30;99703.78;;;8.52;70.90
60465;BME280;46314;52.392;9.758;2023-03-26T03:43:56;99696.84;;;8.78;68.80
60465;BME280;46314;52.392;9.758;2023-03-26T03:46:23;99698.25;;;8.25;68.86
60465;BME280;46314;52.392;9.758;2023-03-26T03:48:49;99693.38;;;8.72;67.50
60465;BME280;46314;52.392;9.758;2023-03-26T03:51:16;99696.88;;;8.86;66.19
60465;BME280;46314;52.392;9.758;2023-03-26T03:53:43;99705.00;;;8.83;66.28
60465;BME280;46314;52.392;9.758;2023-03-26T03:56:10;99701.63;;;8.49;67.38
60465;BME280;46314;52.392;9.758;2023-03-26T03:58:36;99700.69;;;8.40;68.37
60465;BME280;46314;52.392;9.758;2023-03-26T04:01:03;99700.19;;;8.38;68.35
60465;BME280;46314;52.392;9.758;2023-03-26T04:03:30;99705.91;;;8.42;69.46
60465;BME280;46314;52.392;9.758;2023-03-26T04:06:00;99712.22;;;8.70;68.93
60465;BME280;46314;52.392;9.758;2023-03-26T04:08:26;99706.44;;;8.80;69.62
60465;BME280;46314;52.392;9.758;2023-03-26T04:10:54;99711.94;;;8.94;68.83
60465;BME280;46314;52.392;9.758;2023-03-26T04:13:20;99710.00;;;8.58;70.42
60465;BME280;46314;52.392;9.758;2023-03-26T04:15:47;99711.88;;;8.21;72.83
60465;BME280;46314;52.392;9.758;2023-03-26T04:18:13;99709.72;;;8.82;71.58
60465;BME280;46314;52.392;9.758;2023-03-26T04:20:42;99712.34;;;8.87;71.29
60465;BME280;46314;52.392;9.758;2023-03-26T04:23:09;99715.25;;;8.82;71.92
60465;BME280;46314;52.392;9.758;2023-03-26T04:25:35;99704.59;;;8.39;74.50
60465;BME280;46314;52.392;9.758;2023-03-26T04:28:04;99714.50;;;8.90;72.60
60465;BME280;46314;52.392;9.758;2023-03-26T04:30:33;99712.50;;;8.32;74.90
60465;BME280;46314;52.392;9.758;2023-03-26T04:33:00;99720.84;;;8.91;73.01
60465;BME280;46314;52.392;9.758;2023-03-26T04:35:26;99712.63;;;8.63;74.03
60465;BME280;46314;52.392;9.758;2023-03-26T04:37:53;99717.38;;;8.85;74.75
60465;BME280;46314;52.392;9.758;2023-03-26T04:40:20;99712.25;;;9.15;73.32
60465;BME280;46314;52.392;9.758;2023-03-26T04:42:47;99711.38;;;9.06;73.22
60465;BME280;46314;52.392;9.758;2023-03-26T04:45:17;99701.03;;;9.20;72.50
60465;BME280;46314;52.392;9.758;2023-03-26T04:47:43;99712.72;;;9.40;72.58
60465;BME280;46314;52.392;9.758;2023-03-26T04:50:10;99702.53;;;9.26;71.82
60465;BME280;46314;52.392;9.758;2023-03-26T04:52:37;99703.72;;;9.34;72.21
60465;BME280;46314;52.392;9.758;2023-03-26T04:55:05;99706.25;;;8.77;74.14
60465;BME280;46314;52.392;9.758;2023-03-26T04:57:36;99696.47;;;9.47;71.81
60465;BME280;46314;52.392;9.758;2023-03-26T05:00:06;99699.94;;;9.30;71.71
60465;BME280;46314;52.392;9.758;2023-03-26T05:02:33;99698.16;;;9.03;72.44
60465;BME280;46314;52.392;9.758;2023-03-26T05:05:00;99700.97;;;9.34;71.29
60465;BME280;46314;52.392;9.758;2023-03-26T05:07:26;99700.25;;;9.28;71.40
60465;BME280;46314;52.392;9.758;2023-03-26T05:09:53;99698.59;;;9.19;71.52
60465;BME280;46314;52.392;9.758;2023-03-26T05:12:19;99697.97;;;9.22;71.25
60465;BME280;46314;52.392;9.758;2023-03-26T05:14:45;99702.66;;;9.21;71.63
60465;BME280;46314;52.392;9.758;2023-03-26T05:17:13;99689.47;;;9.18;71.32
60465;BME280;46314;52.392;9.758;2023-03-26T05:19:41;99693.25;;;9.00;72.36
60465;BME280;46314;52.392;9.758;2023-03-26T05:22:07;99699.84;;;8.67;73.86
60465;BME280;46314;52.392;9.758;2023-03-26T05:24:34;99692.38;;;8.90;72.02
60465;BME280;46314;52.392;9.758;2023-03-26T05:27:00;99689.44;;;8.87;71.75
60465;BME280;46314;52.392;9.758;2023-03-26T05:29:27;99690.09;;;8.93;71.95
60465;BME280;46314;52.392;9.758;2023-03-26T05:31:53;99691.09;;;8.51;73.94
60465;BME280;46314;52.392;9.758;2023-03-26T05:34:20;99689.56;;;9.04;72.59
60465;BME280;46314;52.392;9.758;2023-03-26T05:36:48;99694.72;;;9.28;71.59
60465;BME280;46314;52.392;9.758;2023-03-26T05:39:14;99687.59;;;9.05;71.88
60465;BME280;46314;52.392;9.758;2023-03-26T05:41:40;99692.00;;;8.83;73.44
60465;BME280;46314;52.392;9.758;2023-03-26T05:44:07;99690.84;;;9.29;72.13
60465;BME280;46314;52.392;9.758;2023-03-26T05:46:33;99694.72;;;9.28;72.29
60465;BME280;46314;52.392;9.758;2023-03-26T05:49:00;99698.09;;;9.17;73.38
60465;BME280;46314;52.392;9.758;2023-03-26T05:51:26;99699.72;;;9.49;71.35
60465;BME280;46314;52.392;9.758;2023-03-26T05:53:54;99699.88;;;9.21;71.98
60465;BME280;46314;52.392;9.758;2023-03-26T05:56:20;99692.63;;;9.03;73.31
60465;BME280;46314;52.392;9.758;2023-03-26T05:58:46;99692.47;;;9.31;72.71
60465;BME280;46314;52.392;9.758;2023-03-26T06:01:13;99687.38;;;9.24;73.52
60465;BME280;46314;52.392;9.758;2023-03-26T06:03:39;99695.50;;;9.20;72.49
60465;BME280;46314;52.392;9.758;2023-03-26T06:06:07;99684.88;;;9.14;73.21
60465;BME280;46314;52.392;9.758;2023-03-26T06:08:34;99681.41;;;9.31;72.65
60465;BME280;46314;52.392;9.758;2023-03-26T06:11:03;99686.75;;;9.27;73.33
60465;BME280;46314;52.392;9.758;2023-03-26T06:13:30;99680.66;;;9.47;72.35
60465;BME280;46314;52.392;9.758;2023-03-26T06:15:56;99676.25;;;9.38;72.90
60465;BME280;46314;52.392;9.758;2023-03-26T06:18:23;99681.50;;;9.48;72.30
60465;BME280;46314;52.392;9.758;2023-03-26T06:20:50;99673.56;;;9.55;72.40
60465;BME280;46314;52.392;9.758;2023-03-26T06:23:17;99669.00;;;9.59;72.17
60465;BME280;46314;52.392;9.758;2023-03-26T06:25:43;99678.34;;;9.09;73.95
60465;BME280;46314;52.392;9.758;2023-03-26T06:28:11;99672.41;;;9.56;72.43
60465;BME280;46314;52.392;9.758;2023-03-26T06:30:38;99671.66;;;9.73;71.76
60465;BME280;46314;52.392;9.758;2023-03-26T06:33:04;99663.22;;;9.78;71.20
60465;BME280;46314;52.392;9.758;2023-03-26T06:35:31;99670.34;;;9.31;73.14
60465;BME280;46314;52.392;9.758;2023-03-26T06:37:57;99665.75;;;9.57;71.88
60465;BME280;46314;52.392;9.758;2023-03-26T06:40:24;99659.13;;;9.76;71.87
60465;BME280;46314;52.392;9.758;2023-03-26T06:42:51;99662.69;;;9.68;71.45
60465;BME280;46314;52.392;9.758;2023-03-26T06:45:37;99665.44;;;9.59;71.65
60465;BME280;46314;52.392;9.758;2023-03-26T06:48:04;99663.31;;;10.13;70.76
60465;BME280;46314;52.392;9.758;2023-03-26T06:50:30;99654.00;;;10.18;69.46
60465;BME280;46314;52.392;9.758;2023-03-26T06:52:57;99664.47;;;10.21;69.91
60465;BME280;46314;52.392;9.758;2023-03-26T06:55:24;99663.78;;;10.07;69.48
60465;BME280;46314;52.392;9.758;2023-03-26T06:57:52;99661.22;;;9.70;71.06
60465;BME280;46314;52.392;9.758;2023-03-26T07:00:19;99662.06;;;10.46;68.92
60465;BME280;46314;52.392;9.758;2023-03-26T07:02:47;99664.69;;;10.59;68.02
60465;BME280;46314;52.392;9.758;2023-03-26T07:05:13;99663.19;;;10.36;68.21
60465;BME280;46314;52.392;9.758;2023-03-26T07:07:40;99663.19;;;10.62;67.10
60465;BME280;46314;52.392;9.758;2023-03-26T07:10:11;99658.97;;;10.56;66.74
60465;BME280;46314;52.392;9.758;2023-03-26T07:12:38;99656.59;;;10.05;68.65
60465;BME280;46314;52.392;9.758;2023-03-26T07:15:05;99653.59;;;10.51;67.41
60465;BME280;46314;52.392;9.758;2023-03-26T07:17:32;99658.47;;;10.45;66.56
60465;BME280;46314;52.392;9.758;2023-03-26T07:20:00;99654.56;;;10.64;66.24
60465;BME280;46314;52.392;9.758;2023-03-26T07:22:27;99650.97;;;10.89;65.55
60465;BME280;46314;52.392;9.758;2023-03-26T07:24:54;99644.81;;;11.31;64.44
60465;BME280;46314;52.392;9.758;2023-03-26T07:27:30;99640.56;;;11.33;63.63
60465;BME280;46314;52.392;9.758;2023-03-26T07:30:04;99635.41;;;11.62;62.62
60465;BME280;46314;52.392;9.758;2023-03-26T07:32:36;99634.66;;;11.82;62.99
60465;BME280;46314;52.392;9.758;2023-03-26T07:35:12;99639.59;;;11.38;62.94
60465;BME280;46314;52.392;9.758;2023-03-26T07:37:48;99637.16;;;11.28;64.39
60465;BME280;46314;52.392;9.758;2023-03-26T07:40:32;99639.00;;;11.53;62.33
60465;BME280;46314;52.392;9.758;2023-03-26T07:43:05;99632.56;;;11.32;62.58
60465;BME280;46314;52.392;9.758;2023-03-26T07:45:39;99635.16;;;11.37;62.82
60465;BME280;46314;52.392;9.758;2023-03-26T07:48:11;99621.13;;;11.72;61.41
60465;BME280;46314;52.392;9.758;2023-03-26T07:50:42;99624.00;;;11.84;60.75
60465;BME280;46314;52.392;9.758;2023-03-26T07:53:09;99621.91;;;11.81;60.86
60465;BME280;46314;52.392;9.758;2023-03-26T07:55:42;99621.78;;;12.28;59.73
60465;BME280;46314;52.392;9.758;2023-03-26T07:58:21;99616.19;;;12.71;58.29
60465;BME280;46314;52.392;9.758;2023-03-26T08:00:55;99611.69;;;13.12;57.10
60465;BME280;46314;52.392;9.758;2023-03-26T08:03:30;99620.06;;;12.57;57.21
60465;BME280;46314;52.392;9.758;2023-03-26T08:06:08;99616.28;;;12.62;56.07
60465;BME280;46314;52.392;9.758;2023-03-26T08:08:42;99616.22;;;12.28;58.04
60465;BME280;46314;52.392;9.758;2023-03-26T08:11:19;99616.09;;;12.46;56.13
60465;BME280;46314;52.392;9.758;2023-03-26T08:14:00;99613.47;;;11.99;56.83
60465;BME280;46314;52.392;9.758;2023-03-26T08:16:34;99606.03;;;12.32;56.45
60465;BME280;46314;52.392;9.758;2023-03-26T08:19:06;99607.59;;;12.63;56.04
60465;BME280;46314;52.392;9.758;2023-03-26T08:21:41;99607.00;;;12.37;56.92
60465;BME280;46314;52.392;9.758;2023-03-26T08:24:16;99601.97;;;13.18;53.92
60465;BME280;46314;52.392;9.758;2023-03-26T08:26:51;99608.06;;;12.02;57.47
60465;BME280;46314;52.392;9.758;2023-03-26T08:29:27;99606.97;;;12.79;55.45
60465;BME280;46314;52.392;9.758;2023-03-26T08:31:57;99607.47;;;12.93;54.43
60465;BME280;46314;52.392;9.758;2023-03-26T08:34:24;99608.38;;;13.31;53.19
60465;BME280;46314;52.392;9.758;2023-03-26T08:36:52;99614.28;;;11.99;56.30
60465;BME280;46314;52.392;9.758;2023-03-26T08:39:18;99620.19;;;12.82;54.72
60465;BME280;46314;52.392;9.758;2023-03-26T08:42:03;99616.44;;;12.44;55.78
60465;BME280;46314;52.392;9.758;2023-03-26T08:44:50;99612.28;;;13.17;53.35
60465;BME280;46314;52.392;9.758;2023-03-26T08:47:43;99608.38;;;13.31;53.13
60465;BME280;46314;52.392;9.758;2023-03-26T08:53:20;99612.59;;;13.37;52.21
60465;BME280;46314;52.392;9.758;2023-03-26T08:55:57;99608.97;;;13.36;52.69
60465;BME280;46314;52.392;9.758;2023-03-26T08:58:58;99608.78;;;12.75;53.54
60465;BME280;46314;52.392;9.758;2023-03-26T09:01:58;99609.94;;;13.40;53.58
60465;BME280;46314;52.392;9.758;2023-03-26T09:07:58;99610.25;;;12.60;54.47
60465;BME280;46314;52.392;9.758;2023-03-26T09:10:45;99615.09;;;12.50;55.21
60465;BME280;46314;52.392;9.758;2023-03-26T09:13:38;99606.09;;;12.66;55.30
60465;BME280;46314;52.392;9.758;2023-03-26T09:16:30;99603.88;;;13.51;52.71
60465;BME280;46314;52.392;9.758;2023-03-26T09:19:32;99607.59;;;12.63;54.71
60465;BME280;46314;52.392;9.758;2023-03-26T09:22:23;99604.28;;;12.49;54.94
60465;BME280;46314;52.392;9.758;2023-03-26T09:25:17;99609.78;;;12.37;55.60
60465;BME280;46314;52.392;9.758;2023-03-26T09:28:14;99603.47;;;12.82;55.28
60465;BME280;46314;52.392;9.758;2023-03-26T09:31:02;99596.91;;;13.32;53.60
60465;BME280;46314;52.392;9.758;2023-03-26T09:34:02;99610.00;;;12.86;55.08
60465;BME280;46314;52.392;9.758;2023-03-26T09:36:52;99599.75;;;12.23;56.88
60465;BME280;46314;52.392;9.758;2023-03-26T09:39:31;99601.34;;;12.66;55.58
60465;BME280;46314;52.392;9.758;2023-03-26T09:42:08;99596.81;;;13.41;53.65
60465;BME280;46314;52.392;9.758;2023-03-26T09:45:02;99599.19;;;13.30;54.55
60465;BME280;46314;52.392;9.758;2023-03-26T09:47:48;99599.94;;;13.52;54.67
60465;BME280;46314;52.392;9.758;2023-03-26T09:50:27;99598.78;;;12.95;56.80
60465;BME280;46314;52.392;9.758;2023-03-26T09:53:06;99600.50;;;12.99;56.56
60465;BME280;46314;52.392;9.758;2023-03-26T09:55:49;99601.44;;;12.91;57.74
60465;BME280;46314;52.392;9.758;2023-03-26T09:58:37;99602.72;;;12.39;57.89
60465;BME280;46314;52.392;9.758;2023-03-26T10:01:13;99600.72;;;13.40;56.31
60465;BME280;46314;52.392;9.758;2023-03-26T10:03:57;99594.50;;;13.10;56.13
60465;BME280;46314;52.392;9.758;2023-03-26T10:06:34;99591.34;;;13.57;54.32
60465;BME280;46314;52.392;9.758;2023-03-26T10:09:12;99593.44;;;13.97;53.60
60465;BME280;46314;52.392;9.758;2023-03-26T10:11:57;99585.78;;;13.32;55.45
60465;BME280;46314;52.392;9.758;2023-03-26T10:14:31;99584.75;;;13.49;54.78
60465;BME280;46314;52.392;9.758;2023-03-26T10:17:12;99580.97;;;13.94;54.15
60465;BME280;46314;52.392;9.758;2023-03-26T10:19:55;99582.53;;;13.67;53.67
60465;BME280;46314;52.392;9.758;2023-03-26T10:22:33;99582.53;;;13.67;52.63
60465;BME280;46314;52.392;9.758;2023-03-26T10:25:23;99588.50;;;12.74;54.58
60465;BME280;46314;52.392;9.758;2023-03-26T10:27:59;99587.75;;;13.81;52.54
60465;BME280;46314;52.392;9.758;2023-03-26T10:30:36;99578.72;;;14.25;50.54
60465;BME280;46314;52.392;9.758;2023-03-26T10:33:20;99576.97;;;14.32;50.34
60465;BME280;46314;52.392;9.758;2023-03-26T10:35:58;99578.75;;;14.53;50.53
60465;BME280;46314;52.392;9.758;2023-03-26T10:38:34;99575.25;;;13.17;54.25
60465;BME280;46314;52.392;9.758;2023-03-26T10:41:09;99574.81;;;14.42;50.96
60465;BME280;46314;52.392;9.758;2023-03-26T10:44:02;99578.28;;;13.24;51.68
60465;BME280;46314;52.392;9.758;2023-03-26T10:46:56;99572.47;;;14.15;51.36
60465;BME280;46314;52.392;9.758;2023-03-26T10:49:53;99578.56;;;14.33;50.98
60465;BME280;46314;52.392;9.758;2023-03-26T10:52:30;99573.66;;;14.14;51.29
60465;BME280;46314;52.392;9.758;2023-03-26T10:55:03;99569.25;;;14.01;50.65
60465;BME280;46314;52.392;9.758;2023-03-26T10:57:40;99557.00;;;13.77;52.71
60465;BME280;46314;52.392;9.758;2023-03-26T11:00:15;99554.94;;;14.15;50.58
60465;BME280;46314;52.392;9.758;2023-03-26T11:02:46;99564.84;;;14.41;50.39
60465;BME280;46314;52.392;9.758;2023-03-26T11:05:38;99556.47;;;13.88;50.72
60465;BME280;46314;52.392;9.758;2023-03-26T11:08:11;99561.91;;;14.09;50.29
60465;BME280;46314;52.392;9.758;2023-03-26T11:10:46;99552.88;;;13.25;52.18
60465;BME280;46314;52.392;9.758;2023-03-26T11:13:21;99564.16;;;13.91;51.54
60465;BME280;46314;52.392;9.758;2023-03-26T11:15:53;99558.72;;;14.23;50.54
60465;BME280;46314;52.392;9.758;2023-03-26T11:18:24;99551.19;;;13.58;52.07
60465;BME280;46314;52.392;9.758;2023-03-26T11:20:58;99557.78;;;13.90;50.77
60465;BME280;46314;52.392;9.758;2023-03-26T11:23:53;99553.41;;;14.17;49.80
60465;BME280;46314;52.392;9.758;2023-03-26T11:26:38;99541.72;;;14.68;48.67
60465;BME280;46314;52.392;9.758;2023-03-26T11:29:23;99539.00;;;12.80;52.97
60465;BME280;46314;52.392;9.758;2023-03-26T11:32:03;99544.84;;;13.98;50.81
60465;BME280;46314;52.392;9.758;2023-03-26T11:34:34;99538.84;;;14.52;49.70
60465;BME280;46314;52.392;9.758;2023-03-26T11:37:04;99547.69;;;14.54;51.00
60465;BME280;46314;52.392;9.758;2023-03-26T11:39:39;99548.38;;;15.08;48.67
60465;BME280;46314;52.392;9.758;2023-03-26T11:42:08;99550.91;;;15.13;47.17
60465;BME280;46314;52.392;9.758;2023-03-26T11:44:37;99553.22;;;14.67;47.47
60465;BME280;46314;52.392;9.758;2023-03-26T11:47:08;99548.38;;;14.35;48.72
60465;BME280;46314;52.392;9.758;2023-03-26T11:49:36;99544.75;;;14.63;47.70
60465;BME280;46314;52.392;9.758;2023-03-26T11:52:04;99549.44;;;14.59;47.40
60465;BME280;46314;52.392;9.758;2023-03-26T11:54:31;99538.25;;;14.87;46.51
60465;BME280;46314;52.392;9.758;2023-03-26T11:57:00;99542.47;;;14.81;47.40
60465;BME280;46314;52.392;9.758;2023-03-26T11:59:34;99539.41;;;14.30;47.38
60465;BME280;46314;52.392;9.758;2023-03-26T12:02:26;99536.31;;;14.75;47.98
60465;BME280;46314;52.392;9.758;2023-03-26T12:05:04;99527.78;;;14.84;47.75
60465;BME280;46314;52.392;9.758;2023-03-26T12:07:43;99522.84;;;14.77;47.42
60465;BME280;46314;52.392;9.758;2023-03-26T12:10:21;99537.47;;;13.77;50.27
60465;BME280;46314;52.392;9.758;2023-03-26T12:12:48;99532.94;;;14.26;49.82
60465;BME280;46314;52.392;9.758;2023-03-26T12:15:15;99529.84;;;14.43;49.15
60465;BME280;46314;52.392;9.758;2023-03-26T12:17:42;99522.69;;;14.30;49.26
60465;BME280;46314;52.392;9.758;2023-03-26T12:20:30;99531.91;;;14.58;48.69
60465;BME280;46314;52.392;9.758;2023-03-26T12:22:59;99530.28;;;14.45;49.83
60465;BME280;46314;52.392;9.758;2023-03-26T12:25:28;99532.44;;;14.36;49.39
60465;BME280;46314;52.392;9.758;2023-03-26T12:27:58;99526.38;;;13.40;51.10
60465;BME280;46314;52.392;9.758;2023-03-26T12:30:26;99524.50;;;14.10;49.23
60465;BME280;46314;52.392;9.758;2023-03-26T12:32:56;99527.88;;;14.03;48.94
60465;BME280;46314;52.392;9.758;2023-03-26T12:35:25;99519.34;;;13.83;49.92
60465;BME280;46314;52.392;9.758;2023-03-26T12:37:52;99524.00;;;13.67;51.02
60465;BME280;46314;52.392;9.758;2023-03-26T12:40:29;99522.28;;;14.72;48.45
60465;BME280;46314;52.392;9.758;2023-03-26T12:42:57;99523.38;;;14.67;48.74
60465;BME280;46314;52.392;9.758;2023-03-26T12:45:47;99520.97;;;14.25;49.60
60465;BME280;46314;52.392;9.758;2023-03-26T12:48:35;99525.97;;;13.67;50.53
60465;BME280;46314;52.392;9.758;2023-03-26T12:51:09;99527.69;;;14.24;49.29
60465;BME280;46314;52.392;9.758;2023-03-26T12:53:51;99527.75;;;14.12;49.47
60465;BME280;46314;52.392;9.758;2023-03-26T12:56:28;99525.31;;;14.38;49.76
60465;BME280;46314;52.392;9.758;2023-03-26T12:59:16;99526.09;;;14.80;48.60
60465;BME280;46314;52.392;9.758;2023-03-26T13:01:53;99522.31;;;14.31;49.25
60465;BME280;46314;52.392;9.758;2023-03-26T13:04:32;99523.72;;;13.97;50.73
60465;BME280;46314;52.392;9.758;2023-03-26T13:07:11;99532.44;;;14.64;49.26
60465;BME280;46314;52.392;9.758;2023-03-26T13:09:52;99530.72;;;14.60;49.22
60465;BME280;46314;52.392;9.758;2023-03-26T13:12:32;99519.41;;;14.84;48.30
60465;BME280;46314;52.392;9.758;2023-03-26T13:15:11;99517.47;;;14.56;48.16
60465;BME280;46314;52.392;9.758;2023-03-26T13:17:49;99518.50;;;14.80;47.94
60465;BME280;46314;52.392;9.758;2023-03-26T13:20:24;99519.63;;;14.35;49.38
60465;BME280;46314;52.392;9.758;2023-03-26T13:22:57;99521.47;;;14.71;48.36
60465;BME280;46314;52.392;9.758;2023-03-26T13:25:34;99518.22;;;14.69;48.28
60465;BME280;46314;52.392;9.758;2023-03-26T13:28:14;99513.84;;;13.99;50.27
60465;BME280;46314;52.392;9.758;2023-03-26T13:30:47;99513.63;;;14.61;48.63
60465;BME280;46314;52.392;9.758;2023-03-26T13:33:25;99508.78;;;14.17;49.96
60465;BME280;46314;52.392;9.758;2023-03-26T13:36:00;99512.09;;;12.84;52.98
60465;BME280;46314;52.392;9.758;2023-03-26T13:39:07;99503.31;;;13.06;52.58